Terminal Aerodrome Forecast
Issued by NWS

Home | Current Version | Previous Version | Text Only | Print | Product List | Glossary On
Versions: 1 2 3 4 5 6 7 8 9 10 11 12 13 14 15 16 17 18 19 20
000
FTUS41 KGYX 281120
TAFHIE
TAF
KHIE 281120Z 2812/2912 00000KT P6SM SCT070 SCT250
     FM281400 20003KT P6SM VCSH SCT070 BKN100
     FM282000 18005KT P6SM -SHRA OVC050
     FM290100 00000KT 3SM BR SCT002=

USA.gov is the U.S. government's official web portal to all federal, state and local government web resources and services.